Sierra Vista Municipal Libby Army Air Field
KFHU : now visible

Airfield :











YOU CAN JOIN US ON...

 
LOGIN :

Register | Disclaimer

   EN    FR    IT 

 









Legend :    VFR   Marginal VFR   IFR   Intensive IFR   Very Intensive IFR
Visi :
Ceiling :
>= 8 km
>= 3000ft
5 to 8 km
1000 to 3000 ft
1500m to 5 km
500 to 1000 ft
800 to 1500m
200 to 500 ft
< 800m
< 200 ft
Symbols :   Thunderstorms  Fog  Heavy snow  Heavy precipitations  Wind > 20 kt






- Airport Elevation : 4719 ft
- IATA code : FHU


KFHU - Sierra Vista Municipal Libby Army Air Field

CURRENT METAR :
  • 220158Z AUTO 25010KT 9SM CLR 24/M03 A2999 RMK AO2 SLP091 T02401034

EXPIRED METARs :
  • 220058Z AUTO 26008KT 9SM CLR 25/M05 A2998 RMK AO2 SLP085 T02531051
  • 212358Z AUTO 22007KT 9SM CLR 29/M04 A2998 RMK AO2 SLP082 T02861036 10308 20286 57006

TAF TAF KFHU
Valid from the 21 at 22:00 until the 23 at 04:00 UTC


212200Z 2122/2304 22009KT 9999 SCT270 510005 QNH2995INS
TEMPO 2122/2124 23010G15KT
BECMG 2201/2202 22009KT 9999 FEW270 QNH2996INS
BECMG 2204/2205 22011KT 9999 SKC QNH2999INS
BECMG 2206/2207 21006KT 9999 SKC QNH2998INS
BECMG 2216/2217 21012G24KT 9999 FEW280 510005 QNH3002INS
BECMG 2219/2220 22014G26KT 9999 BKN260 520006 QNH2994INS TX28/2221Z TN13/2212Z
KZAB FIR / North America



MET'MAP, your aeronautical weather chart ! - Copyright ORBIFLY December 2007 - Disclaimer

ORBIFLY MET'MAP TEAM :

Programming & Development : Alexandra Zaïnal
Concept & original design : Baudouin d'Aumeries
Assistance for programming : Marc-Olivier Méhu
Technical & hardware support : Manuel Goepfert

Contact : metmap@orbifly.com




SOURCES & CREDITS :

   NOAA       Earth
Advisory